sensor_id;sensor_type;location;lat;lon;timestamp;temperature;humidity
9057;DHT22;4563;54.756;9.400;2023-08-06T00:02:23;19.80;72.50
9057;DHT22;4563;54.756;9.400;2023-08-06T00:04:49;19.70;72.50
9057;DHT22;4563;54.756;9.400;2023-08-06T00:07:16;19.70;72.50
9057;DHT22;4563;54.756;9.400;2023-08-06T00:09:43;19.70;72.50
9057;DHT22;4563;54.756;9.400;2023-08-06T00:12:10;19.70;72.60
9057;DHT22;4563;54.756;9.400;2023-08-06T00:14:37;19.70;72.70
9057;DHT22;4563;54.756;9.400;2023-08-06T00:17:03;19.70;72.80
9057;DHT22;4563;54.756;9.400;2023-08-06T00:19:32;19.70;72.80
9057;DHT22;4563;54.756;9.400;2023-08-06T00:21:59;19.70;72.90
9057;DHT22;4563;54.756;9.400;2023-08-06T00:24:27;19.70;72.80
9057;DHT22;4563;54.756;9.400;2023-08-06T00:26:54;19.70;73.00
9057;DHT22;4563;54.756;9.400;2023-08-06T00:29:21;19.70;72.90
9057;DHT22;4563;54.756;9.400;2023-08-06T00:31:48;19.70;73.00
9057;DHT22;4563;54.756;9.400;2023-08-06T00:34:15;19.70;73.10
9057;DHT22;4563;54.756;9.400;2023-08-06T00:36:43;19.60;73.10
9057;DHT22;4563;54.756;9.400;2023-08-06T00:39:10;19.70;73.30
9057;DHT22;4563;54.756;9.400;2023-08-06T00:41:37;19.60;73.30
9057;DHT22;4563;54.756;9.400;2023-08-06T00:44:03;19.60;73.40
9057;DHT22;4563;54.756;9.400;2023-08-06T00:46:31;19.60;73.50
9057;DHT22;4563;54.756;9.400;2023-08-06T00:48:59;19.60;73.60
9057;DHT22;4563;54.756;9.400;2023-08-06T00:51:26;19.60;73.80
9057;DHT22;4563;54.756;9.400;2023-08-06T00:53:55;19.60;73.90
9057;DHT22;4563;54.756;9.400;2023-08-06T00:56:22;19.60;73.90
9057;DHT22;4563;54.756;9.400;2023-08-06T00:58:50;19.60;74.00
9057;DHT22;4563;54.756;9.400;2023-08-06T01:01:17;19.60;74.20
9057;DHT22;4563;54.756;9.400;2023-08-06T01:03:43;19.60;74.30
9057;DHT22;4563;54.756;9.400;2023-08-06T01:06:11;19.50;74.30
9057;DHT22;4563;54.756;9.400;2023-08-06T01:08:43;19.60;74.50
9057;DHT22;4563;54.756;9.400;2023-08-06T01:11:25;19.50;74.60
9057;DHT22;4563;54.756;9.400;2023-08-06T01:13:59;19.50;74.70
9057;DHT22;4563;54.756;9.400;2023-08-06T01:16:30;19.50;74.80
9057;DHT22;4563;54.756;9.400;2023-08-06T01:18:58;19.50;75.70
9057;DHT22;4563;54.756;9.400;2023-08-06T01:21:26;19.50;75.00
9057;DHT22;4563;54.756;9.400;2023-08-06T01:23:53;19.50;75.20
9057;DHT22;4563;54.756;9.400;2023-08-06T01:26:26;19.50;75.20
9057;DHT22;4563;54.756;9.400;2023-08-06T01:28:58;19.50;75.40
9057;DHT22;4563;54.756;9.400;2023-08-06T01:31:27;19.50;75.40
9057;DHT22;4563;54.756;9.400;2023-08-06T01:33:56;19.50;75.40
9057;DHT22;4563;54.756;9.400;2023-08-06T01:36:26;19.50;75.50
9057;DHT22;4563;54.756;9.400;2023-08-06T01:38:53;19.50;75.50
9057;DHT22;4563;54.756;9.400;2023-08-06T01:41:20;19.50;75.40
9057;DHT22;4563;54.756;9.400;2023-08-06T01:43:47;19.50;75.40
9057;DHT22;4563;54.756;9.400;2023-08-06T01:46:14;19.50;75.50
9057;DHT22;4563;54.756;9.400;2023-08-06T01:48:41;19.60;75.50
9057;DHT22;4563;54.756;9.400;2023-08-06T01:51:08;19.50;75.40
9057;DHT22;4563;54.756;9.400;2023-08-06T01:53:37;19.60;75.60
9057;DHT22;4563;54.756;9.400;2023-08-06T01:56:03;19.50;75.40
9057;DHT22;4563;54.756;9.400;2023-08-06T01:58:30;19.60;75.50
9057;DHT22;4563;54.756;9.400;2023-08-06T02:00:57;19.50;75.40
9057;DHT22;4563;54.756;9.400;2023-08-06T02:03:24;19.50;75.30
9057;DHT22;4563;54.756;9.400;2023-08-06T02:05:51;19.60;75.50
9057;DHT22;4563;54.756;9.400;2023-08-06T02:08:18;19.60;75.50
9057;DHT22;4563;54.756;9.400;2023-08-06T02:10:47;19.60;75.40
9057;DHT22;4563;54.756;9.400;2023-08-06T02:13:13;19.60;75.40
9057;DHT22;4563;54.756;9.400;2023-08-06T02:15:42;19.50;75.20
9057;DHT22;4563;54.756;9.400;2023-08-06T02:18:09;19.60;75.40
9057;DHT22;4563;54.756;9.400;2023-08-06T02:20:36;19.50;75.20
9057;DHT22;4563;54.756;9.400;2023-08-06T02:23:03;19.50;75.20
9057;DHT22;4563;54.756;9.400;2023-08-06T02:25:30;19.50;75.10
9057;DHT22;4563;54.756;9.400;2023-08-06T02:27:58;19.50;75.20
9057;DHT22;4563;54.756;9.400;2023-08-06T02:30:25;19.50;75.20
9057;DHT22;4563;54.756;9.400;2023-08-06T02:32:52;19.50;75.20
9057;DHT22;4563;54.756;9.400;2023-08-06T02:35:19;19.50;75.20
9057;DHT22;4563;54.756;9.400;2023-08-06T02:37:46;19.50;75.30
9057;DHT22;4563;54.756;9.400;2023-08-06T02:40:13;19.50;75.20
9057;DHT22;4563;54.756;9.400;2023-08-06T02:42:40;19.50;75.20
9057;DHT22;4563;54.756;9.400;2023-08-06T02:45:09;19.50;75.30
9057;DHT22;4563;54.756;9.400;2023-08-06T02:47:36;19.50;75.30
9057;DHT22;4563;54.756;9.400;2023-08-06T02:50:03;19.50;75.40
9057;DHT22;4563;54.756;9.400;2023-08-06T02:52:32;19.50;75.40
9057;DHT22;4563;54.756;9.400;2023-08-06T02:54:59;19.50;75.40
9057;DHT22;4563;54.756;9.400;2023-08-06T02:57:26;19.50;75.40
9057;DHT22;4563;54.756;9.400;2023-08-06T02:59:53;19.50;75.40
9057;DHT22;4563;54.756;9.400;2023-08-06T03:02:21;19.50;75.40
9057;DHT22;4563;54.756;9.400;2023-08-06T03:04:48;19.50;75.30
9057;DHT22;4563;54.756;9.400;2023-08-06T03:07:15;19.50;75.40
9057;DHT22;4563;54.756;9.400;2023-08-06T03:09:42;19.50;75.40
9057;DHT22;4563;54.756;9.400;2023-08-06T03:12:10;19.50;75.40
9057;DHT22;4563;54.756;9.400;2023-08-06T03:14:37;19.50;75.40
9057;DHT22;4563;54.756;9.400;2023-08-06T03:17:05;19.50;75.40
9057;DHT22;4563;54.756;9.400;2023-08-06T03:19:33;19.50;75.50
9057;DHT22;4563;54.756;9.400;2023-08-06T03:22:00;19.50;75.40
9057;DHT22;4563;54.756;9.400;2023-08-06T03:24:27;19.50;75.40
9057;DHT22;4563;54.756;9.400;2023-08-06T03:26:53;19.50;75.40
9057;DHT22;4563;54.756;9.400;2023-08-06T03:29:20;19.50;75.40
9057;DHT22;4563;54.756;9.400;2023-08-06T03:31:48;19.50;75.40
9057;DHT22;4563;54.756;9.400;2023-08-06T03:34:15;19.40;75.30
9057;DHT22;4563;54.756;9.400;2023-08-06T03:36:43;19.40;75.30
9057;DHT22;4563;54.756;9.400;2023-08-06T03:39:10;19.40;75.30
9057;DHT22;4563;54.756;9.400;2023-08-06T03:41:37;19.40;75.40
9057;DHT22;4563;54.756;9.400;2023-08-06T03:44:04;19.40;75.60
9057;DHT22;4563;54.756;9.400;2023-08-06T03:46:30;19.40;75.70
9057;DHT22;4563;54.756;9.400;2023-08-06T03:49:01;19.40;75.70
9057;DHT22;4563;54.756;9.400;2023-08-06T03:51:27;19.40;75.80
9057;DHT22;4563;54.756;9.400;2023-08-06T03:53:56;19.40;75.90
9057;DHT22;4563;54.756;9.400;2023-08-06T03:56:22;19.40;76.00
9057;DHT22;4563;54.756;9.400;2023-08-06T03:58:50;19.40;76.10
9057;DHT22;4563;54.756;9.400;2023-08-06T04:01:17;19.40;76.10
9057;DHT22;4563;54.756;9.400;2023-08-06T04:03:44;19.40;76.20
9057;DHT22;4563;54.756;9.400;2023-08-06T04:06:11;19.40;76.30
9057;DHT22;4563;54.756;9.400;2023-08-06T04:08:38;19.40;76.40
9057;DHT22;4563;54.756;9.400;2023-08-06T04:11:07;19.40;76.40
9057;DHT22;4563;54.756;9.400;2023-08-06T04:13:34;19.40;77.10
9057;DHT22;4563;54.756;9.400;2023-08-06T04:16:01;19.40;76.40
9057;DHT22;4563;54.756;9.400;2023-08-06T04:18:28;19.40;76.40
9057;DHT22;4563;54.756;9.400;2023-08-06T04:20:55;19.40;76.50
9057;DHT22;4563;54.756;9.400;2023-08-06T04:23:22;19.40;76.50
9057;DHT22;4563;54.756;9.400;2023-08-06T04:25:49;19.40;76.60
9057;DHT22;4563;54.756;9.400;2023-08-06T04:28:18;19.40;76.60
9057;DHT22;4563;54.756;9.400;2023-08-06T04:30:45;19.40;76.70
9057;DHT22;4563;54.756;9.400;2023-08-06T04:33:12;19.40;76.80
9057;DHT22;4563;54.756;9.400;2023-08-06T04:35:39;19.40;76.80
9057;DHT22;4563;54.756;9.400;2023-08-06T04:38:09;19.40;76.80
9057;DHT22;4563;54.756;9.400;2023-08-06T04:40:36;19.40;77.00
9057;DHT22;4563;54.756;9.400;2023-08-06T04:43:03;19.40;77.00
9057;DHT22;4563;54.756;9.400;2023-08-06T04:45:31;19.40;77.10
9057;DHT22;4563;54.756;9.400;2023-08-06T04:48:01;19.40;77.10
9057;DHT22;4563;54.756;9.400;2023-08-06T04:50:28;19.40;77.20
9057;DHT22;4563;54.756;9.400;2023-08-06T04:52:58;19.40;77.30
9057;DHT22;4563;54.756;9.400;2023-08-06T04:55:27;19.40;77.30
9057;DHT22;4563;54.756;9.400;2023-08-06T04:57:54;19.40;77.40
9057;DHT22;4563;54.756;9.400;2023-08-06T05:00:21;19.40;77.40
9057;DHT22;4563;54.756;9.400;2023-08-06T05:02:49;19.40;77.50
9057;DHT22;4563;54.756;9.400;2023-08-06T05:05:16;19.40;77.60
9057;DHT22;4563;54.756;9.400;2023-08-06T05:07:43;19.40;77.60
9057;DHT22;4563;54.756;9.400;2023-08-06T05:10:10;19.40;77.60
9057;DHT22;4563;54.756;9.400;2023-08-06T05:12:37;19.40;77.70
9057;DHT22;4563;54.756;9.400;2023-08-06T05:15:07;19.40;77.70
9057;DHT22;4563;54.756;9.400;2023-08-06T05:17:34;19.40;77.70
9057;DHT22;4563;54.756;9.400;2023-08-06T05:20:03;19.40;77.70
9057;DHT22;4563;54.756;9.400;2023-08-06T05:22:30;19.40;77.70
9057;DHT22;4563;54.756;9.400;2023-08-06T05:24:57;19.40;77.60
9057;DHT22;4563;54.756;9.400;2023-08-06T05:27:24;19.40;77.50
9057;DHT22;4563;54.756;9.400;2023-08-06T05:29:55;19.40;77.40
9057;DHT22;4563;54.756;9.400;2023-08-06T05:32:22;19.40;77.50
9057;DHT22;4563;54.756;9.400;2023-08-06T05:34:49;19.40;77.40
9057;DHT22;4563;54.756;9.400;2023-08-06T05:37:17;19.40;77.30
9057;DHT22;4563;54.756;9.400;2023-08-06T05:39:45;19.40;77.20
9057;DHT22;4563;54.756;9.400;2023-08-06T05:42:14;19.40;77.20
9057;DHT22;4563;54.756;9.400;2023-08-06T05:44:44;19.40;77.20
9057;DHT22;4563;54.756;9.400;2023-08-06T05:47:11;19.40;77.20
9057;DHT22;4563;54.756;9.400;2023-08-06T05:49:42;19.40;77.10
9057;DHT22;4563;54.756;9.400;2023-08-06T05:52:10;19.40;77.10
9057;DHT22;4563;54.756;9.400;2023-08-06T05:54:38;19.40;77.10
9057;DHT22;4563;54.756;9.400;2023-08-06T05:57:06;19.40;77.00
9057;DHT22;4563;54.756;9.400;2023-08-06T05:59:33;19.40;77.00
9057;DHT22;4563;54.756;9.400;2023-08-06T06:02:00;19.40;76.90
9057;DHT22;4563;54.756;9.400;2023-08-06T06:04:28;19.40;76.80
9057;DHT22;4563;54.756;9.400;2023-08-06T06:06:55;19.40;76.90
9057;DHT22;4563;54.756;9.400;2023-08-06T06:09:22;19.40;76.90
9057;DHT22;4563;54.756;9.400;2023-08-06T06:11:50;19.40;76.90
9057;DHT22;4563;54.756;9.400;2023-08-06T06:14:17;19.40;76.90
9057;DHT22;4563;54.756;9.400;2023-08-06T06:16:46;19.40;76.90
9057;DHT22;4563;54.756;9.400;2023-08-06T06:19:13;19.40;77.00
9057;DHT22;4563;54.756;9.400;2023-08-06T06:21:40;19.40;77.00
9057;DHT22;4563;54.756;9.400;2023-08-06T06:24:07;19.40;77.10
9057;DHT22;4563;54.756;9.400;2023-08-06T06:26:34;19.40;77.10
9057;DHT22;4563;54.756;9.400;2023-08-06T06:29:02;19.40;77.10
9057;DHT22;4563;54.756;9.400;2023-08-06T06:31:29;19.40;77.30
9057;DHT22;4563;54.756;9.400;2023-08-06T06:33:56;19.40;77.40
9057;DHT22;4563;54.756;9.400;2023-08-06T06:36:23;19.40;77.50
9057;DHT22;4563;54.756;9.400;2023-08-06T06:38:50;19.40;77.60
9057;DHT22;4563;54.756;9.400;2023-08-06T06:41:17;19.40;77.60
9057;DHT22;4563;54.756;9.400;2023-08-06T06:43:44;19.40;77.70
9057;DHT22;4563;54.756;9.400;2023-08-06T06:46:12;19.50;77.90
9057;DHT22;4563;54.756;9.400;2023-08-06T06:48:39;19.50;78.00
9057;DHT22;4563;54.756;9.400;2023-08-06T06:51:06;19.50;78.00
9057;DHT22;4563;54.756;9.400;2023-08-06T06:53:33;19.50;78.00
9057;DHT22;4563;54.756;9.400;2023-08-06T06:56:02;19.50;78.10
9057;DHT22;4563;54.756;9.400;2023-08-06T06:58:30;19.50;78.20
9057;DHT22;4563;54.756;9.400;2023-08-06T07:00:57;19.50;78.10
9057;DHT22;4563;54.756;9.400;2023-08-06T07:03:26;19.50;78.20
9057;DHT22;4563;54.756;9.400;2023-08-06T07:05:57;19.50;78.40
9057;DHT22;4563;54.756;9.400;2023-08-06T07:08:24;19.50;78.30
9057;DHT22;4563;54.756;9.400;2023-08-06T07:10:59;19.50;78.40
9057;DHT22;4563;54.756;9.400;2023-08-06T07:13:26;19.50;78.50
9057;DHT22;4563;54.756;9.400;2023-08-06T07:15:54;19.50;78.50
9057;DHT22;4563;54.756;9.400;2023-08-06T07:18:21;19.60;78.70
9057;DHT22;4563;54.756;9.400;2023-08-06T07:20:50;19.60;78.70
9057;DHT22;4563;54.756;9.400;2023-08-06T07:23:17;19.60;78.90
9057;DHT22;4563;54.756;9.400;2023-08-06T07:25:44;19.60;78.80
9057;DHT22;4563;54.756;9.400;2023-08-06T07:28:13;19.60;78.90
9057;DHT22;4563;54.756;9.400;2023-08-06T07:30:40;19.60;78.90
9057;DHT22;4563;54.756;9.400;2023-08-06T07:33:10;19.60;78.90
9057;DHT22;4563;54.756;9.400;2023-08-06T07:35:37;19.70;78.90
9057;DHT22;4563;54.756;9.400;2023-08-06T07:38:06;19.70;78.80
9057;DHT22;4563;54.756;9.400;2023-08-06T07:40:35;19.60;78.60
9057;DHT22;4563;54.756;9.400;2023-08-06T07:43:02;19.70;78.60
9057;DHT22;4563;54.756;9.400;2023-08-06T07:45:32;19.70;78.40
9057;DHT22;4563;54.756;9.400;2023-08-06T07:48:00;19.70;78.30
9057;DHT22;4563;54.756;9.400;2023-08-06T07:50:27;19.70;78.00
9057;DHT22;4563;54.756;9.400;2023-08-06T07:52:54;19.70;77.80
9057;DHT22;4563;54.756;9.400;2023-08-06T07:55:22;19.70;77.60
9057;DHT22;4563;54.756;9.400;2023-08-06T07:57:49;19.70;77.30
9057;DHT22;4563;54.756;9.400;2023-08-06T08:00:17;19.70;77.30
9057;DHT22;4563;54.756;9.400;2023-08-06T08:02:44;19.70;77.30
9057;DHT22;4563;54.756;9.400;2023-08-06T08:05:11;19.70;77.30
9057;DHT22;4563;54.756;9.400;2023-08-06T08:07:38;19.70;77.10
9057;DHT22;4563;54.756;9.400;2023-08-06T08:10:06;19.70;77.00
9057;DHT22;4563;54.756;9.400;2023-08-06T08:12:35;19.70;77.10
9057;DHT22;4563;54.756;9.400;2023-08-06T08:15:02;19.70;76.90
9057;DHT22;4563;54.756;9.400;2023-08-06T08:17:29;19.70;76.90
9057;DHT22;4563;54.756;9.400;2023-08-06T08:19:56;19.70;76.80
9057;DHT22;4563;54.756;9.400;2023-08-06T08:22:23;19.70;76.70
9057;DHT22;4563;54.756;9.400;2023-08-06T08:24:50;19.70;76.40
9057;DHT22;4563;54.756;9.400;2023-08-06T08:27:17;19.70;76.20
9057;DHT22;4563;54.756;9.400;2023-08-06T08:29:45;19.70;75.80
9057;DHT22;4563;54.756;9.400;2023-08-06T08:32:12;19.70;75.70
9057;DHT22;4563;54.756;9.400;2023-08-06T08:34:39;19.70;75.70
9057;DHT22;4563;54.756;9.400;2023-08-06T08:37:05;19.70;75.80
9057;DHT22;4563;54.756;9.400;2023-08-06T08:39:32;19.70;75.90
9057;DHT22;4563;54.756;9.400;2023-08-06T08:41:59;19.70;76.00
9057;DHT22;4563;54.756;9.400;2023-08-06T08:44:27;19.70;76.00
9057;DHT22;4563;54.756;9.400;2023-08-06T08:46:57;19.70;75.80
9057;DHT22;4563;54.756;9.400;2023-08-06T08:49:25;19.70;75.70
9057;DHT22;4563;54.756;9.400;2023-08-06T08:51:53;19.80;75.80
9057;DHT22;4563;54.756;9.400;2023-08-06T08:54:23;19.70;75.60
9057;DHT22;4563;54.756;9.400;2023-08-06T08:56:50;19.80;75.50
9057;DHT22;4563;54.756;9.400;2023-08-06T08:59:20;19.70;75.20
9057;DHT22;4563;54.756;9.400;2023-08-06T09:01:48;19.70;75.10
9057;DHT22;4563;54.756;9.400;2023-08-06T09:04:18;19.80;75.30
9057;DHT22;4563;54.756;9.400;2023-08-06T09:06:47;19.80;75.10
9057;DHT22;4563;54.756;9.400;2023-08-06T09:09:19;19.80;74.90
9057;DHT22;4563;54.756;9.400;2023-08-06T09:11:48;19.80;74.70
9057;DHT22;4563;54.756;9.400;2023-08-06T09:14:16;19.80;74.60
9057;DHT22;4563;54.756;9.400;2023-08-06T09:16:44;19.80;74.40
9057;DHT22;4563;54.756;9.400;2023-08-06T09:19:12;19.80;74.40
9057;DHT22;4563;54.756;9.400;2023-08-06T09:21:40;19.80;74.30
9057;DHT22;4563;54.756;9.400;2023-08-06T09:24:08;19.80;74.20
9057;DHT22;4563;54.756;9.400;2023-08-06T09:26:36;19.80;74.20
9057;DHT22;4563;54.756;9.400;2023-08-06T09:29:05;19.80;74.10
9057;DHT22;4563;54.756;9.400;2023-08-06T09:31:33;19.80;74.10
9057;DHT22;4563;54.756;9.400;2023-08-06T09:34:10;19.80;74.80
9057;DHT22;4563;54.756;9.400;2023-08-06T09:36:41;19.90;74.20
9057;DHT22;4563;54.756;9.400;2023-08-06T09:39:13;19.90;74.20
9057;DHT22;4563;54.756;9.400;2023-08-06T09:41:41;19.90;74.10
9057;DHT22;4563;54.756;9.400;2023-08-06T09:44:16;19.90;73.80
9057;DHT22;4563;54.756;9.400;2023-08-06T09:46:47;19.90;73.50
9057;DHT22;4563;54.756;9.400;2023-08-06T09:49:14;19.90;73.50
9057;DHT22;4563;54.756;9.400;2023-08-06T09:51:43;20.00;74.30
9057;DHT22;4563;54.756;9.400;2023-08-06T09:54:12;19.90;73.50
9057;DHT22;4563;54.756;9.400;2023-08-06T09:56:39;20.00;73.60
9057;DHT22;4563;54.756;9.400;2023-08-06T09:59:07;20.00;73.70
9057;DHT22;4563;54.756;9.400;2023-08-06T10:01:35;20.00;73.50
9057;DHT22;4563;54.756;9.400;2023-08-06T10:04:03;20.10;73.50
9057;DHT22;4563;54.756;9.400;2023-08-06T10:06:34;20.10;73.40
9057;DHT22;4563;54.756;9.400;2023-08-06T10:09:02;20.00;73.30
9057;DHT22;4563;54.756;9.400;2023-08-06T10:11:30;20.10;73.50
9057;DHT22;4563;54.756;9.400;2023-08-06T10:14:01;20.10;73.50
9057;DHT22;4563;54.756;9.400;2023-08-06T10:16:30;20.10;73.50
9057;DHT22;4563;54.756;9.400;2023-08-06T10:18:57;20.10;73.50
9057;DHT22;4563;54.756;9.400;2023-08-06T10:21:25;20.20;73.50
9057;DHT22;4563;54.756;9.400;2023-08-06T10:23:54;20.10;73.20
9057;DHT22;4563;54.756;9.400;2023-08-06T10:26:27;20.10;73.00
9057;DHT22;4563;54.756;9.400;2023-08-06T10:28:54;20.20;73.00
9057;DHT22;4563;54.756;9.400;2023-08-06T10:31:53;20.30;72.90
9057;DHT22;4563;54.756;9.400;2023-08-06T10:34:20;20.20;72.60
9057;DHT22;4563;54.756;9.400;2023-08-06T10:36:47;20.20;72.20
9057;DHT22;4563;54.756;9.400;2023-08-06T10:39:14;20.30;72.20
9057;DHT22;4563;54.756;9.400;2023-08-06T10:41:43;20.20;71.80
9057;DHT22;4563;54.756;9.400;2023-08-06T10:44:11;20.30;71.70
9057;DHT22;4563;54.756;9.400;2023-08-06T10:46:38;20.30;71.70
9057;DHT22;4563;54.756;9.400;2023-08-06T10:49:05;20.30;71.40
9057;DHT22;4563;54.756;9.400;2023-08-06T10:51:33;20.40;72.40
9057;DHT22;4563;54.756;9.400;2023-08-06T10:54:00;20.40;71.40
9057;DHT22;4563;54.756;9.400;2023-08-06T10:56:29;20.40;71.20
9057;DHT22;4563;54.756;9.400;2023-08-06T10:58:59;20.40;71.20
9057;DHT22;4563;54.756;9.400;2023-08-06T11:01:29;20.40;70.90
9057;DHT22;4563;54.756;9.400;2023-08-06T11:04:00;20.40;70.90
9057;DHT22;4563;54.756;9.400;2023-08-06T11:06:27;20.40;70.70
9057;DHT22;4563;54.756;9.400;2023-08-06T11:08:55;20.50;70.70
9057;DHT22;4563;54.756;9.400;2023-08-06T11:11:22;20.40;70.50
9057;DHT22;4563;54.756;9.400;2023-08-06T11:13:51;20.50;70.50
9057;DHT22;4563;54.756;9.400;2023-08-06T11:16:22;20.50;70.40
9057;DHT22;4563;54.756;9.400;2023-08-06T11:18:49;20.50;70.20
9057;DHT22;4563;54.756;9.400;2023-08-06T11:21:19;20.50;70.30
9057;DHT22;4563;54.756;9.400;2023-08-06T11:23:46;20.50;70.30
9057;DHT22;4563;54.756;9.400;2023-08-06T11:26:19;20.60;70.40
9057;DHT22;4563;54.756;9.400;2023-08-06T11:28:46;20.60;70.40
9057;DHT22;4563;54.756;9.400;2023-08-06T11:31:20;20.60;70.40
9057;DHT22;4563;54.756;9.400;2023-08-06T11:33:47;20.60;70.70
9057;DHT22;4563;54.756;9.400;2023-08-06T11:36:14;20.70;70.80
9057;DHT22;4563;54.756;9.400;2023-08-06T11:38:41;20.70;70.60
9057;DHT22;4563;54.756;9.400;2023-08-06T11:41:08;20.70;70.40
9057;DHT22;4563;54.756;9.400;2023-08-06T11:43:35;20.80;70.50
9057;DHT22;4563;54.756;9.400;2023-08-06T11:46:02;20.80;70.60
9057;DHT22;4563;54.756;9.400;2023-08-06T11:48:30;20.90;70.70
9057;DHT22;4563;54.756;9.400;2023-08-06T11:50:57;20.80;70.40
9057;DHT22;4563;54.756;9.400;2023-08-06T11:53:27;20.90;70.40
9057;DHT22;4563;54.756;9.400;2023-08-06T11:55:54;20.90;70.20
9057;DHT22;4563;54.756;9.400;2023-08-06T11:58:21;20.90;70.00
9057;DHT22;4563;54.756;9.400;2023-08-06T12:00:48;21.00;69.90
9057;DHT22;4563;54.756;9.400;2023-08-06T12:03:18;21.00;69.70
9057;DHT22;4563;54.756;9.400;2023-08-06T12:05:46;21.00;69.60
9057;DHT22;4563;54.756;9.400;2023-08-06T12:08:13;21.10;69.60
9057;DHT22;4563;54.756;9.400;2023-08-06T12:10:40;21.10;69.70
9057;DHT22;4563;54.756;9.400;2023-08-06T12:13:07;21.10;69.80
9057;DHT22;4563;54.756;9.400;2023-08-06T12:15:34;21.10;69.90
9057;DHT22;4563;54.756;9.400;2023-08-06T12:18:01;21.20;69.80
9057;DHT22;4563;54.756;9.400;2023-08-06T12:20:28;21.20;69.40
9057;DHT22;4563;54.756;9.400;2023-08-06T12:22:56;21.20;69.10
9057;DHT22;4563;54.756;9.400;2023-08-06T12:25:23;21.20;68.80
9057;DHT22;4563;54.756;9.400;2023-08-06T12:27:50;21.20;68.70
9057;DHT22;4563;54.756;9.400;2023-08-06T12:30:16;21.30;68.70
9057;DHT22;4563;54.756;9.400;2023-08-06T12:32:44;21.30;68.80
9057;DHT22;4563;54.756;9.400;2023-08-06T12:35:11;21.30;68.60
9057;DHT22;4563;54.756;9.400;2023-08-06T12:37:39;21.30;68.50
9057;DHT22;4563;54.756;9.400;2023-08-06T12:40:08;21.30;68.30
9057;DHT22;4563;54.756;9.400;2023-08-06T12:42:35;21.40;68.50
9057;DHT22;4563;54.756;9.400;2023-08-06T12:45:03;21.40;68.60
9057;DHT22;4563;54.756;9.400;2023-08-06T12:47:29;21.30;68.10
9057;DHT22;4563;54.756;9.400;2023-08-06T12:49:56;21.40;68.10
9057;DHT22;4563;54.756;9.400;2023-08-06T12:52:23;21.40;68.20
9057;DHT22;4563;54.756;9.400;2023-08-06T12:54:50;21.40;68.40
9057;DHT22;4563;54.756;9.400;2023-08-06T12:57:18;21.40;68.20
9057;DHT22;4563;54.756;9.400;2023-08-06T12:59:45;21.40;67.90
9057;DHT22;4563;54.756;9.400;2023-08-06T13:02:11;21.50;68.00
9057;DHT22;4563;54.756;9.400;2023-08-06T13:04:38;21.50;67.60
9057;DHT22;4563;54.756;9.400;2023-08-06T13:07:05;21.50;67.50
9057;DHT22;4563;54.756;9.400;2023-08-06T13:09:32;21.60;67.80
9057;DHT22;4563;54.756;9.400;2023-08-06T13:11:59;21.60;67.80
9057;DHT22;4563;54.756;9.400;2023-08-06T13:14:32;21.60;67.90
9057;DHT22;4563;54.756;9.400;2023-08-06T13:16:59;21.60;67.90
9057;DHT22;4563;54.756;9.400;2023-08-06T13:19:32;21.60;67.80
9057;DHT22;4563;54.756;9.400;2023-08-06T13:22:01;21.70;68.10
9057;DHT22;4563;54.756;9.400;2023-08-06T13:24:36;21.70;68.30
9057;DHT22;4563;54.756;9.400;2023-08-06T13:27:02;21.70;67.80
9057;DHT22;4563;54.756;9.400;2023-08-06T13:29:29;21.80;67.20
9057;DHT22;4563;54.756;9.400;2023-08-06T13:31:58;21.80;67.10
9057;DHT22;4563;54.756;9.400;2023-08-06T13:34:24;21.90;66.80
9057;DHT22;4563;54.756;9.400;2023-08-06T13:36:51;21.90;66.70
9057;DHT22;4563;54.756;9.400;2023-08-06T13:39:18;22.00;66.60
9057;DHT22;4563;54.756;9.400;2023-08-06T13:41:45;22.00;66.30
9057;DHT22;4563;54.756;9.400;2023-08-06T13:44:12;22.10;66.20
9057;DHT22;4563;54.756;9.400;2023-08-06T13:46:41;22.10;66.00
9057;DHT22;4563;54.756;9.400;2023-08-06T13:49:09;22.20;65.90
9057;DHT22;4563;54.756;9.400;2023-08-06T13:51:36;22.20;65.80
9057;DHT22;4563;54.756;9.400;2023-08-06T13:54:03;22.20;65.60
9057;DHT22;4563;54.756;9.400;2023-08-06T13:56:32;22.20;65.40
9057;DHT22;4563;54.756;9.400;2023-08-06T13:58:59;22.30;65.50
9057;DHT22;4563;54.756;9.400;2023-08-06T14:01:26;22.30;65.40
9057;DHT22;4563;54.756;9.400;2023-08-06T14:03:53;22.30;65.40
9057;DHT22;4563;54.756;9.400;2023-08-06T14:06:21;22.30;65.40
9057;DHT22;4563;54.756;9.400;2023-08-06T14:08:48;22.30;65.30
9057;DHT22;4563;54.756;9.400;2023-08-06T14:11:15;22.30;65.30
9057;DHT22;4563;54.756;9.400;2023-08-06T14:13:42;22.30;65.30
9057;DHT22;4563;54.756;9.400;2023-08-06T14:16:09;22.30;65.40
9057;DHT22;4563;54.756;9.400;2023-08-06T14:18:36;22.30;65.40
9057;DHT22;4563;54.756;9.400;2023-08-06T14:21:04;22.30;65.40
9057;DHT22;4563;54.756;9.400;2023-08-06T14:23:32;22.20;65.40
9057;DHT22;4563;54.756;9.400;2023-08-06T14:25:59;22.20;65.40
9057;DHT22;4563;54.756;9.400;2023-08-06T14:28:26;22.30;65.50
9057;DHT22;4563;54.756;9.400;2023-08-06T14:30:55;22.20;65.30
9057;DHT22;4563;54.756;9.400;2023-08-06T14:33:22;22.20;65.20
9057;DHT22;4563;54.756;9.400;2023-08-06T14:35:48;22.20;65.10
9057;DHT22;4563;54.756;9.400;2023-08-06T14:38:15;22.20;65.00
9057;DHT22;4563;54.756;9.400;2023-08-06T14:40:44;22.20;64.90
9057;DHT22;4563;54.756;9.400;2023-08-06T14:43:11;22.20;64.70
9057;DHT22;4563;54.756;9.400;2023-08-06T14:45:38;22.20;64.40
9057;DHT22;4563;54.756;9.400;2023-08-06T14:48:06;22.20;64.40
9057;DHT22;4563;54.756;9.400;2023-08-06T14:50:33;22.10;64.40
9057;DHT22;4563;54.756;9.400;2023-08-06T14:53:00;22.20;64.60
9057;DHT22;4563;54.756;9.400;2023-08-06T14:55:28;22.20;64.70
9057;DHT22;4563;54.756;9.400;2023-08-06T14:57:56;22.20;64.50
9057;DHT22;4563;54.756;9.400;2023-08-06T15:00:26;22.20;63.80
9057;DHT22;4563;54.756;9.400;2023-08-06T15:02:52;22.20;63.20
9057;DHT22;4563;54.756;9.400;2023-08-06T15:05:19;22.20;62.70
9057;DHT22;4563;54.756;9.400;2023-08-06T15:07:46;22.20;62.20
9057;DHT22;4563;54.756;9.400;2023-08-06T15:10:14;22.20;62.20
9057;DHT22;4563;54.756;9.400;2023-08-06T15:12:41;22.20;61.70
9057;DHT22;4563;54.756;9.400;2023-08-06T15:15:10;22.20;61.40
9057;DHT22;4563;54.756;9.400;2023-08-06T15:17:37;22.20;61.50
9057;DHT22;4563;54.756;9.400;2023-08-06T15:20:04;22.20;61.20
9057;DHT22;4563;54.756;9.400;2023-08-06T15:22:31;22.20;61.00
9057;DHT22;4563;54.756;9.400;2023-08-06T15:25:01;22.20;60.80
9057;DHT22;4563;54.756;9.400;2023-08-06T15:27:32;22.30;60.80
9057;DHT22;4563;54.756;9.400;2023-08-06T15:30:00;22.30;61.60
9057;DHT22;4563;54.756;9.400;2023-08-06T15:32:28;22.30;60.90
9057;DHT22;4563;54.756;9.400;2023-08-06T15:34:55;22.30;60.80
9057;DHT22;4563;54.756;9.400;2023-08-06T15:37:22;22.30;60.70
9057;DHT22;4563;54.756;9.400;2023-08-06T15:39:49;22.30;61.50
9057;DHT22;4563;54.756;9.400;2023-08-06T15:42:16;22.30;60.80
9057;DHT22;4563;54.756;9.400;2023-08-06T15:44:43;22.30;60.60
9057;DHT22;4563;54.756;9.400;2023-08-06T15:47:10;22.30;60.50
9057;DHT22;4563;54.756;9.400;2023-08-06T15:49:39;22.30;60.70
9057;DHT22;4563;54.756;9.400;2023-08-06T15:52:09;22.30;60.90
9057;DHT22;4563;54.756;9.400;2023-08-06T15:54:35;22.30;60.90
9057;DHT22;4563;54.756;9.400;2023-08-06T15:57:04;22.30;60.90
9057;DHT22;4563;54.756;9.400;2023-08-06T15:59:32;22.30;60.90
9057;DHT22;4563;54.756;9.400;2023-08-06T16:01:59;22.40;61.10
9057;DHT22;4563;54.756;9.400;2023-08-06T16:04:28;22.30;61.10
9057;DHT22;4563;54.756;9.400;2023-08-06T16:06:57;22.30;61.30